createdAt,value
2023-02-27T00:01:34.135Z,13.60
2023-02-27T00:04:02.596Z,13.17
2023-02-27T00:06:30.796Z,12.60
2023-02-27T00:08:58.980Z,12.87
2023-02-27T00:11:27.721Z,11.77
2023-02-27T00:13:55.760Z,15.10
2023-02-27T00:16:24.430Z,16.50
2023-02-27T00:18:52.867Z,15.80
2023-02-27T00:21:21.459Z,17.20
2023-02-27T00:23:49.955Z,15.10
2023-02-27T00:26:18.536Z,14.60
2023-02-27T00:28:46.473Z,18.33
2023-02-27T00:31:14.714Z,24.40
2023-02-27T00:33:43.110Z,20.83
2023-02-27T00:36:11.396Z,18.27
2023-02-27T00:38:39.301Z,14.07
2023-02-27T00:41:07.249Z,15.13
2023-02-27T00:43:36.771Z,12.73
2023-02-27T00:46:05.423Z,11.93
2023-02-27T00:48:33.485Z,10.83
2023-02-27T00:51:02.942Z,11.83
2023-02-27T00:53:30.931Z,11.03
2023-02-27T00:55:58.927Z,9.23
2023-02-27T00:58:26.771Z,8.60
2023-02-27T01:00:57.113Z,8.50
2023-02-27T01:03:27.973Z,7.97
2023-02-27T01:05:56.942Z,8.07
2023-02-27T01:08:26.458Z,8.30
2023-02-27T01:10:58.991Z,8.87
2023-02-27T01:13:27.359Z,7.90
2023-02-27T01:15:55.649Z,7.23
2023-02-27T01:18:23.994Z,7.63
2023-02-27T01:20:54.125Z,8.17
2023-02-27T01:23:22.637Z,9.20
2023-02-27T01:25:51.066Z,9.77
2023-02-27T01:28:18.788Z,8.90
2023-02-27T01:30:46.778Z,8.47
2023-02-27T01:33:15.395Z,8.43
2023-02-27T01:35:43.659Z,9.70
2023-02-27T01:38:13.423Z,9.80
2023-02-27T01:40:42.568Z,10.93
2023-02-27T01:43:15.853Z,11.90
2023-02-27T01:45:47.924Z,12.07
2023-02-27T01:48:30.155Z,10.70
2023-02-27T01:51:07.904Z,14.40
2023-02-27T01:53:37.662Z,13.03
2023-02-27T01:56:16.663Z,12.13
2023-02-27T01:58:45.185Z,10.33
2023-02-27T02:01:13.346Z,9.93
2023-02-27T02:03:45.419Z,11.07
2023-02-27T02:06:13.606Z,10.93
2023-02-27T02:08:43.815Z,12.03
2023-02-27T02:11:13.040Z,12.07
2023-02-27T02:13:41.713Z,11.60
2023-02-27T02:16:13.136Z,13.03
2023-02-27T02:18:48.591Z,12.60
2023-02-27T02:21:50.309Z,13.40
2023-02-27T02:24:33.464Z,13.27
2023-02-27T02:27:04.336Z,18.20
2023-02-27T02:29:53.971Z,15.50
2023-02-27T02:32:40.375Z,12.67
2023-02-27T02:35:25.994Z,11.67
2023-02-27T02:38:39.825Z,9.63
2023-02-27T02:41:11.107Z,7.67
2023-02-27T02:44:10.919Z,7.67
2023-02-27T02:46:53.274Z,8.80
2023-02-27T02:49:30.909Z,7.00
2023-02-27T02:52:04.665Z,7.37
2023-02-27T02:54:39.201Z,6.67
2023-02-27T02:57:25.722Z,7.07
2023-02-27T02:59:53.748Z,6.43
2023-02-27T03:02:25.424Z,7.80
2023-02-27T03:04:59.162Z,7.17
2023-02-27T03:07:34.634Z,9.40
2023-02-27T03:10:10.275Z,9.93
2023-02-27T03:12:39.895Z,11.00
2023-02-27T03:15:11.047Z,9.63
2023-02-27T03:18:02.773Z,9.70
2023-02-27T03:20:34.488Z,9.97
2023-02-27T03:23:05.769Z,10.83
2023-02-27T03:25:35.212Z,10.90
2023-02-27T03:28:10.507Z,10.20
2023-02-27T03:30:45.201Z,10.50
2023-02-27T03:33:26.409Z,8.63
2023-02-27T03:35:58.855Z,9.23
2023-02-27T03:38:28.070Z,9.63
2023-02-27T03:41:02.546Z,11.90
2023-02-27T03:44:05.600Z,11.13
2023-02-27T03:46:34.144Z,14.17
2023-02-27T03:49:02.612Z,18.33
2023-02-27T03:51:31.763Z,16.53
2023-02-27T03:54:06.264Z,17.13
2023-02-27T03:56:42.938Z,15.93
2023-02-27T03:59:10.915Z,21.03
2023-02-27T04:01:44.765Z,28.97
2023-02-27T04:04:15.423Z,27.73
2023-02-27T04:07:24.884Z,26.57
2023-02-27T04:10:11.530Z,31.37
2023-02-27T04:12:51.696Z,31.53
2023-02-27T04:15:44.033Z,28.03
2023-02-27T04:18:12.189Z,17.90
2023-02-27T04:20:43.886Z,14.23
2023-02-27T04:23:28.352Z,14.90
2023-02-27T04:25:56.471Z,18.30
2023-02-27T04:28:40.811Z,21.67
2023-02-27T04:31:12.039Z,26.90
2023-02-27T04:33:43.386Z,24.30
2023-02-27T04:36:22.551Z,30.67
2023-02-27T04:38:55.888Z,43.50
2023-02-27T04:41:30.483Z,55.23
2023-02-27T04:43:59.583Z,59.47
2023-02-27T04:46:28.916Z,96.00
2023-02-27T04:49:02.476Z,84.33
2023-02-27T04:51:34.716Z,82.47
2023-02-27T04:54:07.309Z,86.53
2023-02-27T04:56:36.816Z,85.77
2023-02-27T04:59:36.610Z,92.33
2023-02-27T05:02:10.833Z,96.60
2023-02-27T05:04:42.977Z,83.40
2023-02-27T05:07:16.409Z,62.30
2023-02-27T05:09:54.521Z,62.67
2023-02-27T05:12:25.750Z,56.50
2023-02-27T05:15:22.418Z,37.70
2023-02-27T05:17:59.606Z,33.07
2023-02-27T05:20:52.190Z,25.70
2023-02-27T05:23:20.276Z,26.37
2023-02-27T05:26:14.821Z,22.77
2023-02-27T05:29:00.461Z,21.80
2023-02-27T05:31:29.690Z,29.80
2023-02-27T05:34:14.790Z,38.73
2023-02-27T05:37:05.959Z,36.03
2023-02-27T05:39:37.524Z,31.57
2023-02-27T05:42:34.451Z,32.40
2023-02-27T05:45:20.842Z,29.33
2023-02-27T05:47:58.178Z,27.13
2023-02-27T05:50:29.497Z,27.40
2023-02-27T05:53:03.406Z,32.93
2023-02-27T05:55:41.474Z,40.93
2023-02-27T05:58:12.958Z,61.80
2023-02-27T06:00:46.484Z,60.70
2023-02-27T06:03:15.318Z,45.90
2023-02-27T06:05:44.512Z,28.33
2023-02-27T06:08:13.530Z,32.17
2023-02-27T06:10:41.816Z,104.03
2023-02-27T06:13:10.240Z,68.63
2023-02-27T06:15:38.360Z,48.13
2023-02-27T06:18:07.534Z,35.93
2023-02-27T06:20:35.700Z,18.93
2023-02-27T06:23:04.518Z,18.07
2023-02-27T06:25:32.379Z,19.67
2023-02-27T06:28:00.922Z,23.03
2023-02-27T06:30:29.493Z,26.37
2023-02-27T06:32:58.803Z,24.70
2023-02-27T06:35:26.565Z,44.67
2023-02-27T06:37:55.270Z,42.27
2023-02-27T06:40:23.042Z,47.67
2023-02-27T06:42:51.422Z,35.73
2023-02-27T06:45:19.742Z,26.00
2023-02-27T06:47:47.874Z,26.23
2023-02-27T06:50:15.604Z,44.83
2023-02-27T06:52:43.753Z,71.00
2023-02-27T06:55:12.294Z,50.10
2023-02-27T06:57:40.438Z,48.33
2023-02-27T07:00:10.780Z,35.03
2023-02-27T07:02:39.636Z,162.07
2023-02-27T07:05:08.546Z,64.27
2023-02-27T07:07:38.721Z,29.43
2023-02-27T07:10:11.956Z,17.63
2023-02-27T07:12:40.601Z,12.00
2023-02-27T07:15:09.594Z,10.93
2023-02-27T07:17:38.359Z,15.90
2023-02-27T07:20:09.109Z,25.30
2023-02-27T07:22:38.707Z,32.27
2023-02-27T07:25:07.740Z,28.43
2023-02-27T07:27:35.962Z,31.57
2023-02-27T07:30:04.017Z,31.33
2023-02-27T07:32:31.983Z,41.73
2023-02-27T07:34:59.765Z,49.47
2023-02-27T07:37:28.283Z,45.67
2023-02-27T07:39:56.324Z,40.37
2023-02-27T07:42:24.408Z,36.73
2023-02-27T07:44:52.199Z,37.13
2023-02-27T07:47:20.305Z,31.23
2023-02-27T07:49:48.039Z,44.23
2023-02-27T07:52:15.978Z,36.37
2023-02-27T07:54:43.747Z,33.13
2023-02-27T07:57:11.737Z,34.97
2023-02-27T07:59:39.605Z,30.60
2023-02-27T08:02:11.484Z,37.10
2023-02-27T08:04:42.121Z,53.73
2023-02-27T08:07:10.459Z,29.13
2023-02-27T08:09:39.405Z,19.23
2023-02-27T08:12:07.840Z,13.87
2023-02-27T08:14:35.656Z,13.13
2023-02-27T08:17:03.878Z,12.80
2023-02-27T08:19:32.253Z,13.30
2023-02-27T08:22:00.711Z,14.37
2023-02-27T08:24:28.525Z,14.80
2023-02-27T08:26:57.661Z,20.30
2023-02-27T08:29:25.558Z,29.47
2023-02-27T08:31:54.274Z,32.53
2023-02-27T08:34:22.209Z,33.77
2023-02-27T08:36:50.483Z,40.60
2023-02-27T08:39:18.841Z,39.43
2023-02-27T08:41:46.915Z,29.10
2023-02-27T08:44:14.749Z,20.93
2023-02-27T08:46:43.378Z,22.40
2023-02-27T08:49:11.706Z,22.77
2023-02-27T08:51:40.054Z,23.93
2023-02-27T08:54:09.018Z,18.67
2023-02-27T08:56:38.227Z,21.03
2023-02-27T08:59:06.121Z,14.70
2023-02-27T09:01:34.985Z,15.03
2023-02-27T09:04:04.466Z,13.70
2023-02-27T09:06:34.430Z,11.17
2023-02-27T09:09:03.959Z,15.37
2023-02-27T09:11:32.293Z,18.33
2023-02-27T09:14:00.133Z,13.37
2023-02-27T09:16:28.818Z,14.73
2023-02-27T09:18:57.728Z,28.90
2023-02-27T09:21:26.281Z,136.10
2023-02-27T09:23:55.035Z,27.33
2023-02-27T09:26:39.730Z,33.43
2023-02-27T09:29:09.505Z,15.00
2023-02-27T09:31:37.547Z,12.83
2023-02-27T09:34:05.256Z,13.33
2023-02-27T09:36:33.355Z,14.97
2023-02-27T09:39:01.069Z,13.37
2023-02-27T09:41:29.480Z,8.67
2023-02-27T09:43:57.284Z,8.57
2023-02-27T09:46:25.798Z,83.27
2023-02-27T09:48:56.489Z,22.87
2023-02-27T09:51:24.764Z,8.20
2023-02-27T09:53:56.095Z,8.27
2023-02-27T09:56:26.727Z,12.20
2023-02-27T09:59:23.502Z,8.00
2023-02-27T10:02:14.424Z,8.57
2023-02-27T10:05:05.477Z,6.63
2023-02-27T10:07:50.210Z,5.07
2023-02-27T10:10:18.603Z,7.90
2023-02-27T10:13:05.419Z,6.40
2023-02-27T10:15:40.817Z,6.47
2023-02-27T10:18:26.079Z,5.20
2023-02-27T10:21:03.019Z,4.50
2023-02-27T10:23:39.951Z,3.27
2023-02-27T10:26:19.991Z,6.23
2023-02-27T10:28:48.798Z,5.30
2023-02-27T10:31:21.490Z,10.20
2023-02-27T10:33:49.582Z,23.47
2023-02-27T10:36:32.495Z,9.33
2023-02-27T10:39:06.956Z,11.83
2023-02-27T10:41:35.968Z,4.43
2023-02-27T10:44:05.260Z,5.57
2023-02-27T10:46:36.972Z,7.13
2023-02-27T10:49:18.837Z,7.17
2023-02-27T10:52:03.450Z,11.50
2023-02-27T10:54:32.154Z,10.27
2023-02-27T10:57:08.352Z,4.33
2023-02-27T10:59:39.256Z,5.90
2023-02-27T11:02:21.232Z,3.03
2023-02-27T11:04:54.610Z,22.17
2023-02-27T11:07:32.542Z,5.87
2023-02-27T11:10:09.284Z,11.67
2023-02-27T11:12:37.092Z,5.43
2023-02-27T11:15:23.647Z,5.20
2023-02-27T11:17:51.672Z,3.00
2023-02-27T11:20:40.793Z,7.20
2023-02-27T11:23:17.710Z,3.57
2023-02-27T11:25:45.680Z,4.33
2023-02-27T11:28:30.342Z,3.03
2023-02-27T11:31:00.232Z,2.17
2023-02-27T11:33:29.923Z,2.60
2023-02-27T11:35:59.655Z,2.60
2023-02-27T11:38:30.067Z,3.10
2023-02-27T11:41:04.205Z,1.45
2023-02-27T11:43:50.018Z,4.13
2023-02-27T11:46:47.115Z,2.92
2023-02-27T11:49:38.251Z,6.18
2023-02-27T11:52:26.986Z,3.95
2023-02-27T11:55:04.327Z,2.20
2023-02-27T11:57:41.195Z,4.15
2023-02-27T12:00:09.101Z,2.80
2023-02-27T12:03:11.588Z,2.65
2023-02-27T12:05:49.865Z,3.17
2023-02-27T12:08:25.980Z,3.10
2023-02-27T12:11:14.308Z,2.70
2023-02-27T12:13:51.319Z,2.40
2023-02-27T12:16:33.167Z,4.20
2023-02-27T12:19:30.237Z,9.70
2023-02-27T12:22:12.306Z,6.20
2023-02-27T12:24:45.056Z,3.70
2023-02-27T12:27:16.149Z,6.67
2023-02-27T12:29:58.618Z,5.10
2023-02-27T12:32:32.436Z,5.03
2023-02-27T12:35:21.353Z,6.10
2023-02-27T12:37:49.711Z,4.03
2023-02-27T12:40:20.687Z,6.20
2023-02-27T12:43:24.414Z,3.83
2023-02-27T12:45:52.597Z,3.93
2023-02-27T12:48:24.102Z,3.83
2023-02-27T12:51:04.890Z,3.23
2023-02-27T12:53:58.428Z,3.67
2023-02-27T12:56:32.981Z,3.63
2023-02-27T12:59:32.728Z,2.73
2023-02-27T13:02:22.499Z,2.57
2023-02-27T13:05:01.983Z,3.30
2023-02-27T13:07:59.713Z,3.13
2023-02-27T13:10:40.070Z,3.27
2023-02-27T13:13:22.185Z,4.50
2023-02-27T13:15:54.424Z,4.10
2023-02-27T13:18:29.028Z,4.50
2023-02-27T13:21:06.330Z,3.90
2023-02-27T13:23:58.735Z,6.13
2023-02-27T13:26:44.371Z,9.50
2023-02-27T13:29:15.694Z,3.78
2023-02-27T13:31:57.547Z,9.77
2023-02-27T13:34:49.383Z,4.07
2023-02-27T13:37:17.940Z,4.55
2023-02-27T13:39:50.585Z,3.00
2023-02-27T13:42:27.298Z,2.10
2023-02-27T13:45:09.227Z,2.42
2023-02-27T13:47:42.600Z,2.47
2023-02-27T13:50:23.369Z,2.30
2023-02-27T13:52:52.211Z,2.17
2023-02-27T13:55:32.574Z,3.00
2023-02-27T13:58:02.581Z,2.40
2023-02-27T14:00:36.536Z,2.80
2023-02-27T14:03:30.554Z,6.63
2023-02-27T14:06:06.777Z,4.97
2023-02-27T14:09:08.774Z,6.80
2023-02-27T14:11:59.503Z,1.80
2023-02-27T14:14:58.208Z,2.80
2023-02-27T14:17:36.656Z,1.97
2023-02-27T14:20:20.732Z,2.05
2023-02-27T14:23:26.495Z,2.77
2023-02-27T14:26:00.363Z,2.20
2023-02-27T14:28:55.799Z,1.97
2023-02-27T14:31:44.780Z,2.10
2023-02-27T14:34:18.556Z,2.00
2023-02-27T14:36:51.953Z,3.90
2023-02-27T14:39:28.243Z,5.33
2023-02-27T14:42:16.816Z,5.37
2023-02-27T14:44:48.177Z,2.80
2023-02-27T14:47:32.496Z,2.70
2023-02-27T14:50:01.291Z,8.73
2023-02-27T14:52:31.156Z,10.93
2023-02-27T14:55:30.790Z,3.97
2023-02-27T14:57:58.820Z,17.93
2023-02-27T15:00:51.023Z,3.43
2023-02-27T15:03:30.417Z,9.83
2023-02-27T15:06:03.291Z,3.90
2023-02-27T15:08:40.658Z,73.90
2023-02-27T15:11:14.810Z,78.27
2023-02-27T15:13:45.056Z,12.30
2023-02-27T15:16:19.129Z,18.77
2023-02-27T15:18:56.039Z,5.90
2023-02-27T15:21:27.503Z,6.27
2023-02-27T15:24:04.528Z,7.20
2023-02-27T15:26:41.910Z,5.50
2023-02-27T15:29:10.125Z,5.20
2023-02-27T15:31:44.102Z,5.03
2023-02-27T15:34:15.847Z,4.23
2023-02-27T15:36:52.478Z,3.80
2023-02-27T15:39:27.219Z,8.03
2023-02-27T15:41:59.155Z,4.90
2023-02-27T15:44:43.802Z,6.80
2023-02-27T15:47:39.388Z,5.10
2023-02-27T15:50:13.174Z,37.20
2023-02-27T15:53:02.940Z,8.93
2023-02-27T15:55:38.051Z,16.23
2023-02-27T15:58:25.119Z,7.30
2023-02-27T16:01:05.384Z,6.23
2023-02-27T16:03:40.541Z,6.37
2023-02-27T16:06:19.334Z,10.97
2023-02-27T16:08:58.708Z,10.03
2023-02-27T16:11:32.703Z,94.27
2023-02-27T16:14:01.517Z,8.00
2023-02-27T16:16:36.251Z,7.37
2023-02-27T16:19:27.758Z,10.80
2023-02-27T16:22:07.472Z,11.23
2023-02-27T16:24:37.369Z,17.50
2023-02-27T16:27:06.369Z,16.27
2023-02-27T16:29:45.701Z,13.23
2023-02-27T16:32:26.377Z,8.27
2023-02-27T16:35:17.531Z,18.20
2023-02-27T16:37:47.012Z,49.17
2023-02-27T16:40:20.928Z,126.20
2023-02-27T16:42:50.382Z,101.47
2023-02-27T16:45:19.878Z,60.93
2023-02-27T16:47:52.292Z,49.97
2023-02-27T16:50:24.060Z,35.57
2023-02-27T16:52:52.055Z,42.17
2023-02-27T16:55:20.763Z,53.23
2023-02-27T16:58:15.618Z,81.93
2023-02-27T17:00:44.165Z,69.93
2023-02-27T17:03:12.032Z,78.27
2023-02-27T17:05:41.291Z,64.23
2023-02-27T17:08:11.015Z,270.13
2023-02-27T17:10:39.473Z,244.00
2023-02-27T17:13:07.572Z,77.80
2023-02-27T17:15:35.858Z,99.77
2023-02-27T17:18:03.708Z,164.43
2023-02-27T17:20:32.227Z,128.30
2023-02-27T17:23:00.246Z,94.83
2023-02-27T17:25:29.110Z,81.37
2023-02-27T17:27:57.634Z,48.17
2023-02-27T17:30:25.919Z,32.73
2023-02-27T17:32:53.663Z,28.43
2023-02-27T17:35:21.751Z,19.60
2023-02-27T17:37:50.635Z,15.33
2023-02-27T17:40:18.858Z,22.27
2023-02-27T17:42:47.046Z,16.60
2023-02-27T17:45:15.364Z,37.83
2023-02-27T17:47:43.937Z,20.13
2023-02-27T17:50:12.133Z,16.20
2023-02-27T17:52:40.210Z,10.83
2023-02-27T17:55:08.890Z,11.73
2023-02-27T17:57:37.696Z,96.40
2023-02-27T18:00:06.951Z,33.17
2023-02-27T18:02:36.146Z,42.87
2023-02-27T18:05:05.394Z,34.87
2023-02-27T18:07:34.883Z,28.07
2023-02-27T18:10:03.719Z,22.13
2023-02-27T18:12:31.772Z,23.80
2023-02-27T18:14:59.838Z,20.20
2023-02-27T18:17:27.836Z,18.73
2023-02-27T18:19:58.140Z,16.87
2023-02-27T18:22:26.114Z,17.23
2023-02-27T18:24:55.352Z,11.53
2023-02-27T18:27:25.260Z,11.70
2023-02-27T18:29:54.360Z,10.90
2023-02-27T18:32:22.214Z,10.77
2023-02-27T18:34:50.523Z,10.47
2023-02-27T18:37:18.675Z,10.63
2023-02-27T18:39:46.794Z,11.90
2023-02-27T18:42:15.299Z,11.10
2023-02-27T18:44:43.658Z,10.93
2023-02-27T18:47:13.087Z,10.43
2023-02-27T18:49:41.244Z,10.43
2023-02-27T18:52:10.718Z,12.77
2023-02-27T18:54:43.389Z,54.17
2023-02-27T18:57:11.560Z,40.17
2023-02-27T18:59:41.906Z,39.00
2023-02-27T19:02:17.681Z,31.87
2023-02-27T19:04:47.503Z,22.73
2023-02-27T19:07:16.242Z,19.63
2023-02-27T19:09:44.976Z,20.70
2023-02-27T19:12:13.994Z,19.67
2023-02-27T19:14:44.067Z,21.20
2023-02-27T19:17:12.268Z,21.63
2023-02-27T19:19:41.481Z,21.97
2023-02-27T19:22:09.523Z,23.00
2023-02-27T19:24:38.311Z,33.03
2023-02-27T19:27:08.430Z,27.63
2023-02-27T19:29:37.809Z,35.27
2023-02-27T19:32:08.479Z,29.27
2023-02-27T19:34:37.028Z,27.13
2023-02-27T19:37:05.440Z,19.10
2023-02-27T19:39:34.644Z,17.97
2023-02-27T19:42:03.385Z,16.97
2023-02-27T19:44:31.838Z,15.17
2023-02-27T19:47:00.469Z,17.50
2023-02-27T19:49:29.912Z,19.90
2023-02-27T19:52:00.109Z,17.40
2023-02-27T19:54:28.805Z,17.13
2023-02-27T19:56:57.044Z,16.83
2023-02-27T19:59:26.491Z,17.17
2023-02-27T20:01:55.100Z,18.33
2023-02-27T20:04:24.630Z,20.73
2023-02-27T20:06:54.208Z,19.70
2023-02-27T20:09:23.932Z,17.83
2023-02-27T20:11:54.254Z,16.53
2023-02-27T20:14:22.914Z,24.83
2023-02-27T20:16:53.405Z,27.80
2023-02-27T20:19:24.347Z,36.00
2023-02-27T20:21:54.482Z,29.40
2023-02-27T20:24:24.757Z,25.03
2023-02-27T20:26:54.209Z,20.97
2023-02-27T20:29:23.503Z,20.70
2023-02-27T20:31:55.505Z,22.90
2023-02-27T20:34:26.555Z,27.03
2023-02-27T20:36:55.681Z,40.13
2023-02-27T20:39:24.149Z,36.73
2023-02-27T20:41:52.436Z,35.70
2023-02-27T20:44:20.620Z,36.20
2023-02-27T20:46:49.871Z,34.73
2023-02-27T20:49:18.012Z,33.23
2023-02-27T20:51:46.676Z,29.97
2023-02-27T20:54:20.966Z,36.77
2023-02-27T20:56:55.324Z,34.60
2023-02-27T20:59:26.066Z,34.47
2023-02-27T21:01:55.516Z,34.60
2023-02-27T21:04:26.629Z,37.63
2023-02-27T21:06:55.902Z,35.07
2023-02-27T21:09:23.772Z,31.57
2023-02-27T21:11:53.008Z,31.10
2023-02-27T21:14:22.268Z,28.57
2023-02-27T21:16:50.428Z,29.13
2023-02-27T21:19:18.522Z,27.33
2023-02-27T21:21:47.296Z,25.63
2023-02-27T21:24:15.622Z,25.17
2023-02-27T21:26:46.325Z,21.87
2023-02-27T21:29:15.904Z,25.43
2023-02-27T21:31:45.720Z,24.53
2023-02-27T21:34:25.992Z,23.80
2023-02-27T21:36:56.286Z,24.73
2023-02-27T21:39:26.058Z,25.67
2023-02-27T21:41:54.257Z,28.17
2023-02-27T21:44:25.646Z,27.10
2023-02-27T21:46:56.504Z,27.77
2023-02-27T21:49:26.058Z,25.53
2023-02-27T21:51:54.944Z,24.30
2023-02-27T21:54:23.298Z,23.67
2023-02-27T21:56:51.659Z,23.50
2023-02-27T21:59:20.436Z,21.10
2023-02-27T22:01:49.432Z,22.43
2023-02-27T22:04:18.667Z,22.87
2023-02-27T22:06:47.177Z,21.90
2023-02-27T22:09:15.626Z,23.77
2023-02-27T22:11:44.013Z,23.53
2023-02-27T22:14:12.649Z,21.83
2023-02-27T22:16:41.660Z,21.17
2023-02-27T22:19:12.559Z,22.73
2023-02-27T22:21:41.167Z,24.43
2023-02-27T22:24:09.390Z,22.83
2023-02-27T22:26:38.035Z,21.30
2023-02-27T22:29:07.052Z,23.70
2023-02-27T22:31:36.744Z,24.83
2023-02-27T22:34:07.508Z,25.50
2023-02-27T22:36:36.582Z,23.30
2023-02-27T22:39:05.755Z,22.67
2023-02-27T22:41:35.641Z,23.27
2023-02-27T22:44:04.101Z,22.63
2023-02-27T22:46:33.571Z,23.97
2023-02-27T22:49:27.656Z,22.73
2023-02-27T22:51:55.874Z,23.70
2023-02-27T22:54:23.993Z,21.43
2023-02-27T22:56:52.939Z,25.57
2023-02-27T22:59:21.099Z,28.47
2023-02-27T23:01:49.377Z,27.03
2023-02-27T23:04:17.387Z,28.20
2023-02-27T23:06:45.809Z,30.57
2023-02-27T23:09:15.519Z,28.80
2023-02-27T23:11:44.144Z,34.43
2023-02-27T23:14:12.949Z,36.17
2023-02-27T23:16:45.704Z,40.53
2023-02-27T23:19:15.161Z,44.60
2023-02-27T23:21:43.363Z,46.80
2023-02-27T23:24:14.005Z,46.23
2023-02-27T23:26:45.309Z,46.40
2023-02-27T23:29:13.619Z,47.37
2023-02-27T23:31:42.531Z,44.87
2023-02-27T23:34:10.800Z,48.03
2023-02-27T23:36:39.337Z,43.70
2023-02-27T23:39:08.049Z,43.87
2023-02-27T23:41:36.535Z,45.27
2023-02-27T23:44:04.676Z,47.63
2023-02-27T23:46:32.952Z,49.03
2023-02-27T23:49:01.613Z,47.60
2023-02-27T23:51:31.023Z,44.67
2023-02-27T23:53:59.357Z,40.03
2023-02-27T23:56:30.433Z,41.30
2023-02-27T23:59:01.610Z,39.57
